SWR2EG LSZH-LEPA
Flight info
| Callsign | SWR2EG |
|---|---|
| Flight time | 1h 39m |
| Altitude | 35000 |
| Route | VEBIT T50 ROTOS Z669 ULMES DCT VADAR DCT GEVEA DCT INCUS DCT BALSI DCT RETNO DCT TUPOX DCT MTG DCT DIVKO DCT VATIR DCT PIVUS DCT BODEQ DCT VERSO L129 LUNIK |
| Aircraft | A321/M-SDE2E3FGIRWXY/L |
Departure
| Time | 2026-05-06 14:05 |
|---|---|
| Airport | Zürich Airport (LSZH) |
Arrival
| Time | 2026-05-06 15:44 |
|---|---|
| Airport | Palma de Mallorca Airport (LEPA) |
| Time | Latitude | Longitude | Altitude | Speed | Heading |
|---|---|---|---|---|---|
| 2026-05-06 13:30 | 47.45423 | 8.55805 | 1404 ft | 0 kts | 186° |
| 2026-05-06 13:45 | 47.45446 | 8.55808 | 1399 ft | 4 kts | 186° |
| 2026-05-06 13:46 | 47.45472 | 8.55815 | 1404 ft | 4 kts | 201° |
| 2026-05-06 13:46 | 47.45494 | 8.55834 | 1408 ft | 4 kts | 236° |
| 2026-05-06 13:46 | 47.45500 | 8.55864 | 1405 ft | 1 kts | 276° |
| 2026-05-06 13:46 | 47.45500 | 8.55870 | 1406 ft | 0 kts | 276° |
| 2026-05-06 13:53 | 47.45513 | 8.55842 | 1408 ft | 7 kts | 320° |
| 2026-05-06 13:53 | 47.45557 | 8.55844 | 1401 ft | 10 kts | 11° |
| 2026-05-06 13:54 | 47.45620 | 8.55853 | 1397 ft | 9 kts | 6° |
| 2026-05-06 13:54 | 47.45715 | 8.55869 | 1401 ft | 15 kts | 6° |
| 2026-05-06 13:54 | 47.45814 | 8.55889 | 1402 ft | 15 kts | 15° |
| 2026-05-06 13:54 | 47.45906 | 8.55935 | 1405 ft | 12 kts | 22° |
| 2026-05-06 13:55 | 47.45965 | 8.55989 | 1400 ft | 9 kts | 58° |
| 2026-05-06 13:55 | 47.45968 | 8.56098 | 1404 ft | 9 kts | 95° |
| 2026-05-06 13:55 | 47.45964 | 8.56151 | 1405 ft | 3 kts | 95° |
| 2026-05-06 13:55 | 47.45964 | 8.56153 | 1405 ft | 0 kts | 95° |
| 2026-05-06 13:56 | 47.45964 | 8.56155 | 1405 ft | 2 kts | 95° |
| 2026-05-06 13:56 | 47.45959 | 8.56227 | 1398 ft | 11 kts | 95° |
| 2026-05-06 13:56 | 47.45958 | 8.56248 | 1398 ft | 0 kts | 95° |
| 2026-05-06 13:57 | 47.45952 | 8.56319 | 1398 ft | 10 kts | 104° |
| 2026-05-06 13:58 | 47.45905 | 8.56411 | 1405 ft | 16 kts | 137° |
| 2026-05-06 13:58 | 47.45829 | 8.56511 | 1402 ft | 11 kts | 139° |
| 2026-05-06 13:58 | 47.45796 | 8.56623 | 1402 ft | 17 kts | 97° |
| 2026-05-06 13:58 | 47.45784 | 8.56790 | 1399 ft | 13 kts | 96° |
| 2026-05-06 13:59 | 47.45776 | 8.56898 | 1404 ft | 8 kts | 96° |
| 2026-05-06 13:59 | 47.45771 | 8.56964 | 1399 ft | 8 kts | 96° |
| 2026-05-06 13:59 | 47.45748 | 8.57020 | 1410 ft | 0 kts | 142° |
| 2026-05-06 14:03 | 47.45745 | 8.57022 | 1407 ft | 5 kts | 147° |
| 2026-05-06 14:03 | 47.45693 | 8.57031 | 1407 ft | 6 kts | 204° |
| 2026-05-06 14:03 | 47.45666 | 8.56964 | 1408 ft | 8 kts | 271° |
| 2026-05-06 14:03 | 47.45671 | 8.56902 | 1406 ft | 0 kts | 275° |
| 2026-05-06 14:04 | 47.45687 | 8.56646 | 1403 ft | 60 kts | 276° |
| 2026-05-06 14:04 | 47.45751 | 8.55704 | 1399 ft | 121 kts | 275° |
| 2026-05-06 14:05 | 47.45854 | 8.54231 | 1523 ft | 156 kts | 276° |
| 2026-05-06 14:05 | 47.45968 | 8.52667 | 2260 ft | 152 kts | 274° |
| 2026-05-06 14:05 | 47.46078 | 8.51106 | 2886 ft | 158 kts | 273° |
| 2026-05-06 14:05 | 47.46196 | 8.49392 | 3144 ft | 179 kts | 273° |
| 2026-05-06 14:06 | 47.46090 | 8.47486 | 3350 ft | 196 kts | 246° |
| 2026-05-06 14:06 | 47.45157 | 8.45969 | 3780 ft | 209 kts | 215° |
| 2026-05-06 14:06 | 47.43976 | 8.44720 | 4554 ft | 208 kts | 225° |
| 2026-05-06 14:06 | 47.43039 | 8.43107 | 5283 ft | 210 kts | 236° |
| 2026-05-06 14:07 | 47.42144 | 8.41250 | 5644 ft | 234 kts | 236° |
| 2026-05-06 14:07 | 47.41171 | 8.39212 | 6147 ft | 250 kts | 236° |
| 2026-05-06 14:07 | 47.40172 | 8.37118 | 6846 ft | 254 kts | 236° |
| 2026-05-06 14:07 | 47.39149 | 8.34972 | 7620 ft | 257 kts | 237° |
| 2026-05-06 14:08 | 47.38246 | 8.32687 | 8466 ft | 259 kts | 241° |
| 2026-05-06 14:08 | 47.37383 | 8.30304 | 9271 ft | 262 kts | 241° |
| 2026-05-06 14:08 | 47.36535 | 8.27905 | 9989 ft | 265 kts | 242° |
| 2026-05-06 14:08 | 47.35669 | 8.25434 | 10260 ft | 286 kts | 242° |
| 2026-05-06 14:09 | 47.34722 | 8.22739 | 10384 ft | 307 kts | 242° |
| 2026-05-06 14:09 | 47.33703 | 8.19854 | 10649 ft | 323 kts | 242° |
| 2026-05-06 14:09 | 47.32656 | 8.16893 | 11248 ft | 328 kts | 241° |
| 2026-05-06 14:09 | 47.31592 | 8.13885 | 11858 ft | 332 kts | 242° |
| 2026-05-06 14:10 | 47.30517 | 8.10849 | 12507 ft | 336 kts | 242° |
| 2026-05-06 14:10 | 47.29427 | 8.07781 | 13139 ft | 340 kts | 242° |
| 2026-05-06 14:10 | 47.28317 | 8.04670 | 13753 ft | 345 kts | 242° |
| 2026-05-06 14:10 | 47.27192 | 8.01521 | 14315 ft | 349 kts | 241° |
| 2026-05-06 14:11 | 47.26212 | 7.98285 | 14866 ft | 353 kts | 246° |
| 2026-05-06 14:11 | 47.25277 | 7.94928 | 15428 ft | 356 kts | 246° |
| 2026-05-06 14:11 | 47.24335 | 7.91549 | 15978 ft | 359 kts | 245° |
| 2026-05-06 14:11 | 47.23379 | 7.88140 | 16518 ft | 362 kts | 245° |
| 2026-05-06 14:12 | 47.22412 | 7.84699 | 17058 ft | 365 kts | 245° |
| 2026-05-06 14:12 | 47.21435 | 7.81237 | 17591 ft | 368 kts | 245° |
| 2026-05-06 14:12 | 47.20448 | 7.77739 | 18126 ft | 372 kts | 244° |
| 2026-05-06 14:12 | 47.19443 | 7.74227 | 18566 ft | 374 kts | 242° |
| 2026-05-06 14:13 | 47.18127 | 7.70933 | 18962 ft | 374 kts | 231° |
| 2026-05-06 14:13 | 47.16521 | 7.67914 | 19356 ft | 376 kts | 229° |
| 2026-05-06 14:13 | 47.14884 | 7.64886 | 19757 ft | 379 kts | 229° |
| 2026-05-06 14:13 | 47.13233 | 7.61836 | 20149 ft | 383 kts | 229° |
| 2026-05-06 14:14 | 47.11574 | 7.58775 | 20581 ft | 384 kts | 229° |
| 2026-05-06 14:14 | 47.09901 | 7.55689 | 21002 ft | 387 kts | 229° |
| 2026-05-06 14:14 | 47.08217 | 7.52583 | 21406 ft | 389 kts | 229° |
| 2026-05-06 14:14 | 47.06550 | 7.49504 | 21849 ft | 392 kts | 229° |
| 2026-05-06 14:15 | 47.04847 | 7.46359 | 22312 ft | 396 kts | 229° |
| 2026-05-06 14:15 | 47.03128 | 7.43189 | 22739 ft | 398 kts | 229° |
| 2026-05-06 14:15 | 47.01393 | 7.39995 | 23146 ft | 401 kts | 229° |
| 2026-05-06 14:15 | 46.99643 | 7.36791 | 23557 ft | 404 kts | 229° |
| 2026-05-06 14:16 | 46.97873 | 7.33571 | 23921 ft | 406 kts | 229° |
| 2026-05-06 14:16 | 46.96099 | 7.30349 | 24319 ft | 407 kts | 229° |
| 2026-05-06 14:16 | 46.94316 | 7.27110 | 24718 ft | 408 kts | 230° |
| 2026-05-06 14:16 | 46.92544 | 7.23882 | 25183 ft | 407 kts | 229° |
| 2026-05-06 14:17 | 46.90772 | 7.20649 | 25589 ft | 407 kts | 229° |
| 2026-05-06 14:17 | 46.88998 | 7.17413 | 25999 ft | 408 kts | 229° |
| 2026-05-06 14:17 | 46.87220 | 7.14176 | 26394 ft | 409 kts | 229° |
| 2026-05-06 14:17 | 46.85435 | 7.10933 | 26795 ft | 410 kts | 229° |
| 2026-05-06 14:18 | 46.83644 | 7.07684 | 27173 ft | 411 kts | 229° |
| 2026-05-06 14:18 | 46.81852 | 7.04433 | 27549 ft | 411 kts | 229° |
| 2026-05-06 14:18 | 46.80058 | 7.01175 | 27912 ft | 412 kts | 229° |
| 2026-05-06 14:18 | 46.78256 | 6.97911 | 28267 ft | 413 kts | 229° |
| 2026-05-06 14:19 | 46.76451 | 6.94650 | 28596 ft | 414 kts | 229° |
| 2026-05-06 14:19 | 46.74639 | 6.91386 | 29003 ft | 413 kts | 229° |
| 2026-05-06 14:19 | 46.72821 | 6.88124 | 29192 ft | 417 kts | 229° |
| 2026-05-06 14:19 | 46.70988 | 6.84838 | 29387 ft | 419 kts | 229° |
| 2026-05-06 14:20 | 46.69145 | 6.81530 | 29633 ft | 420 kts | 229° |
| 2026-05-06 14:20 | 46.67308 | 6.78227 | 29974 ft | 419 kts | 230° |
| 2026-05-06 14:20 | 46.65506 | 6.75000 | 30254 ft | 417 kts | 229° |
| 2026-05-06 14:20 | 46.63606 | 6.71808 | 30529 ft | 416 kts | 226° |
| 2026-05-06 14:21 | 46.61641 | 6.68717 | 30795 ft | 416 kts | 225° |
| 2026-05-06 14:21 | 46.59645 | 6.65692 | 31052 ft | 415 kts | 225° |
| 2026-05-06 14:21 | 46.57637 | 6.62682 | 31327 ft | 414 kts | 225° |
| 2026-05-06 14:21 | 46.55633 | 6.59666 | 31599 ft | 414 kts | 225° |
| 2026-05-06 14:22 | 46.54311 | 6.57657 | 31784 ft | 414 kts | 225° |
| 2026-05-06 14:22 | 46.52337 | 6.54628 | 32051 ft | 413 kts | 225° |
| 2026-05-06 14:22 | 46.50369 | 6.51582 | 32320 ft | 413 kts | 225° |
| 2026-05-06 14:22 | 46.48410 | 6.48540 | 32582 ft | 412 kts | 225° |
| 2026-05-06 14:23 | 46.46448 | 6.45496 | 32852 ft | 412 kts | 225° |
| 2026-05-06 14:23 | 46.44487 | 6.42464 | 33095 ft | 413 kts | 226° |
| 2026-05-06 14:23 | 46.42514 | 6.39419 | 33229 ft | 416 kts | 226° |
| 2026-05-06 14:23 | 46.40519 | 6.36348 | 33379 ft | 419 kts | 226° |
| 2026-05-06 14:24 | 46.38520 | 6.33282 | 33594 ft | 419 kts | 225° |
| 2026-05-06 14:24 | 46.36518 | 6.30220 | 33891 ft | 417 kts | 225° |
| 2026-05-06 14:24 | 46.34523 | 6.27174 | 34115 ft | 417 kts | 225° |
| 2026-05-06 14:24 | 46.32524 | 6.24127 | 34302 ft | 417 kts | 225° |
| 2026-05-06 14:25 | 46.30532 | 6.21088 | 34488 ft | 417 kts | 225° |
| 2026-05-06 14:25 | 46.28529 | 6.18063 | 34649 ft | 416 kts | 223° |
| 2026-05-06 14:25 | 46.26306 | 6.15483 | 34834 ft | 416 kts | 213° |
| 2026-05-06 14:25 | 46.23755 | 6.13516 | 34928 ft | 416 kts | 203° |
| 2026-05-06 14:26 | 46.18140 | 6.11605 | 34947 ft | 415 kts | 191° |
| 2026-05-06 14:26 | 46.12431 | 6.10342 | 34948 ft | 415 kts | 191° |
| 2026-05-06 14:27 | 46.06723 | 6.09075 | 34945 ft | 415 kts | 191° |
| 2026-05-06 14:27 | 46.01015 | 6.07809 | 34945 ft | 415 kts | 191° |
| 2026-05-06 14:28 | 45.95316 | 6.06539 | 34953 ft | 414 kts | 192° |
| 2026-05-06 14:28 | 45.89625 | 6.05285 | 34960 ft | 413 kts | 191° |
| 2026-05-06 14:29 | 45.83945 | 6.04041 | 34959 ft | 413 kts | 191° |
| 2026-05-06 14:29 | 45.78275 | 6.02791 | 34952 ft | 412 kts | 192° |
| 2026-05-06 14:30 | 45.72650 | 6.01539 | 34952 ft | 411 kts | 192° |
| 2026-05-06 14:30 | 45.66994 | 6.00283 | 34957 ft | 411 kts | 192° |
| 2026-05-06 14:31 | 45.61346 | 5.99047 | 34952 ft | 410 kts | 192° |
| 2026-05-06 14:31 | 45.55699 | 5.97820 | 34956 ft | 410 kts | 192° |
| 2026-05-06 14:32 | 45.50069 | 5.96585 | 34953 ft | 409 kts | 192° |
| 2026-05-06 14:32 | 45.44458 | 5.95215 | 34948 ft | 408 kts | 194° |
| 2026-05-06 14:33 | 45.38932 | 5.93450 | 34938 ft | 407 kts | 196° |
| 2026-05-06 14:33 | 45.33419 | 5.91618 | 34938 ft | 407 kts | 196° |
| 2026-05-06 14:34 | 45.27898 | 5.89855 | 34932 ft | 407 kts | 195° |
| 2026-05-06 14:34 | 45.22368 | 5.88150 | 34923 ft | 406 kts | 195° |
| 2026-05-06 14:35 | 45.16837 | 5.86453 | 34930 ft | 406 kts | 195° |
| 2026-05-06 14:35 | 45.11324 | 5.84759 | 34932 ft | 405 kts | 195° |
| 2026-05-06 14:36 | 45.05816 | 5.83051 | 34931 ft | 405 kts | 195° |
| 2026-05-06 14:36 | 45.00309 | 5.81354 | 34909 ft | 405 kts | 196° |
| 2026-05-06 14:37 | 44.94793 | 5.79659 | 34915 ft | 405 kts | 196° |
| 2026-05-06 14:37 | 44.89288 | 5.77960 | 34917 ft | 405 kts | 196° |
| 2026-05-06 14:38 | 44.83787 | 5.76271 | 34903 ft | 404 kts | 196° |
| 2026-05-06 14:38 | 44.78288 | 5.74586 | 34916 ft | 404 kts | 196° |
| 2026-05-06 14:39 | 44.72837 | 5.72922 | 34915 ft | 403 kts | 196° |
| 2026-05-06 14:39 | 44.67352 | 5.71244 | 34917 ft | 403 kts | 196° |
| 2026-05-06 14:40 | 44.61855 | 5.69568 | 34920 ft | 404 kts | 196° |
| 2026-05-06 14:40 | 44.56344 | 5.67902 | 34910 ft | 405 kts | 196° |
| 2026-05-06 14:41 | 44.50855 | 5.66238 | 34906 ft | 406 kts | 196° |
| 2026-05-06 14:41 | 44.45332 | 5.64567 | 34891 ft | 406 kts | 196° |
| 2026-05-06 14:42 | 44.39804 | 5.62896 | 34901 ft | 406 kts | 196° |
| 2026-05-06 14:42 | 44.34488 | 5.60420 | 34903 ft | 402 kts | 205° |
| 2026-05-06 14:43 | 44.29285 | 5.57559 | 34904 ft | 402 kts | 205° |
| 2026-05-06 14:43 | 44.24078 | 5.54713 | 34902 ft | 401 kts | 205° |
| 2026-05-06 14:44 | 44.18875 | 5.51873 | 34910 ft | 401 kts | 205° |
| 2026-05-06 14:45 | 44.11085 | 5.47633 | 34914 ft | 400 kts | 205° |
| 2026-05-06 14:45 | 44.05934 | 5.44837 | 34899 ft | 400 kts | 205° |
| 2026-05-06 14:46 | 44.00754 | 5.42029 | 34900 ft | 399 kts | 205° |
| 2026-05-06 14:46 | 43.95579 | 5.39226 | 34912 ft | 399 kts | 205° |
| 2026-05-06 14:47 | 43.90412 | 5.36430 | 34917 ft | 398 kts | 205° |
| 2026-05-06 14:47 | 43.85262 | 5.33643 | 34907 ft | 397 kts | 205° |
| 2026-05-06 14:48 | 43.80109 | 5.30867 | 34928 ft | 397 kts | 205° |
| 2026-05-06 14:48 | 43.74954 | 5.28095 | 34926 ft | 398 kts | 205° |
| 2026-05-06 14:49 | 43.69790 | 5.25316 | 34908 ft | 397 kts | 205° |
| 2026-05-06 14:49 | 43.64671 | 5.22565 | 34917 ft | 397 kts | 205° |
| 2026-05-06 14:50 | 43.59520 | 5.19811 | 34918 ft | 397 kts | 205° |
| 2026-05-06 14:50 | 43.54375 | 5.17066 | 34925 ft | 397 kts | 205° |
| 2026-05-06 14:51 | 43.49234 | 5.14326 | 34917 ft | 392 kts | 205° |
| 2026-05-06 14:51 | 43.44223 | 5.11664 | 34889 ft | 385 kts | 205° |
| 2026-05-06 14:52 | 43.39223 | 5.08936 | 34876 ft | 386 kts | 210° |
| 2026-05-06 14:52 | 43.34748 | 5.05012 | 34891 ft | 385 kts | 217° |
| 2026-05-06 14:53 | 43.30310 | 5.00820 | 34997 ft | 389 kts | 217° |
| 2026-05-06 14:53 | 43.28069 | 4.98716 | 35145 ft | 390 kts | 217° |
| 2026-05-06 14:53 | 43.25827 | 4.96612 | 35303 ft | 391 kts | 217° |
| 2026-05-06 14:53 | 43.23578 | 4.94503 | 35472 ft | 392 kts | 217° |
| 2026-05-06 14:54 | 43.21325 | 4.92390 | 35604 ft | 393 kts | 217° |
| 2026-05-06 14:54 | 43.19061 | 4.90268 | 35714 ft | 395 kts | 217° |
| 2026-05-06 14:54 | 43.16789 | 4.88142 | 35862 ft | 395 kts | 217° |
| 2026-05-06 14:54 | 43.14511 | 4.86013 | 36016 ft | 396 kts | 217° |
| 2026-05-06 14:55 | 43.12234 | 4.83883 | 36119 ft | 396 kts | 217° |
| 2026-05-06 14:55 | 43.09957 | 4.81755 | 36283 ft | 396 kts | 217° |
| 2026-05-06 14:55 | 43.07710 | 4.79657 | 36433 ft | 396 kts | 217° |
| 2026-05-06 14:55 | 43.05419 | 4.77558 | 36567 ft | 398 kts | 213° |
| 2026-05-06 14:56 | 43.03003 | 4.75701 | 36701 ft | 399 kts | 212° |
| 2026-05-06 14:56 | 43.00576 | 4.73856 | 36856 ft | 398 kts | 212° |
| 2026-05-06 14:56 | 42.98153 | 4.72017 | 36938 ft | 400 kts | 212° |
| 2026-05-06 14:57 | 42.93274 | 4.68324 | 36939 ft | 401 kts | 212° |
| 2026-05-06 14:57 | 42.88392 | 4.64643 | 36938 ft | 400 kts | 212° |
| 2026-05-06 14:58 | 42.83517 | 4.60970 | 36958 ft | 400 kts | 212° |
| 2026-05-06 14:58 | 42.78645 | 4.57293 | 36959 ft | 400 kts | 212° |
| 2026-05-06 14:59 | 42.73769 | 4.53616 | 36945 ft | 401 kts | 212° |
| 2026-05-06 14:59 | 42.68879 | 4.49946 | 36945 ft | 402 kts | 212° |
| 2026-05-06 15:00 | 42.63980 | 4.46275 | 36945 ft | 402 kts | 212° |
| 2026-05-06 15:00 | 42.59079 | 4.42599 | 36954 ft | 403 kts | 212° |
| 2026-05-06 15:01 | 42.54163 | 4.38927 | 36963 ft | 403 kts | 212° |
| 2026-05-06 15:01 | 42.49252 | 4.35274 | 36964 ft | 402 kts | 212° |
| 2026-05-06 15:02 | 42.44346 | 4.31625 | 36970 ft | 402 kts | 212° |
| 2026-05-06 15:02 | 42.39436 | 4.27976 | 36978 ft | 402 kts | 212° |
| 2026-05-06 15:03 | 42.34560 | 4.24365 | 36981 ft | 402 kts | 212° |
| 2026-05-06 15:03 | 42.29650 | 4.20740 | 36969 ft | 401 kts | 212° |
| 2026-05-06 15:04 | 42.24755 | 4.17126 | 36987 ft | 401 kts | 212° |
| 2026-05-06 15:04 | 42.19862 | 4.13515 | 36987 ft | 401 kts | 212° |
| 2026-05-06 15:05 | 42.14973 | 4.09911 | 36985 ft | 401 kts | 212° |
| 2026-05-06 15:05 | 42.10078 | 4.06309 | 36967 ft | 400 kts | 212° |
| 2026-05-06 15:06 | 42.05188 | 4.02716 | 36972 ft | 400 kts | 212° |
| 2026-05-06 15:06 | 42.00306 | 3.99134 | 36982 ft | 400 kts | 212° |
| 2026-05-06 15:07 | 41.95424 | 3.95565 | 36979 ft | 400 kts | 212° |
| 2026-05-06 15:07 | 41.90227 | 3.92851 | 36948 ft | 408 kts | 195° |
| 2026-05-06 15:08 | 41.84618 | 3.91562 | 36963 ft | 408 kts | 195° |
| 2026-05-06 15:08 | 41.79056 | 3.90289 | 36968 ft | 408 kts | 195° |
| 2026-05-06 15:09 | 41.73454 | 3.88998 | 36969 ft | 408 kts | 195° |
| 2026-05-06 15:09 | 41.67858 | 3.87707 | 36952 ft | 408 kts | 195° |
| 2026-05-06 15:10 | 41.62261 | 3.86418 | 36963 ft | 408 kts | 195° |
| 2026-05-06 15:10 | 41.57620 | 3.85359 | 36970 ft | 408 kts | 195° |
| 2026-05-06 15:11 | 41.52027 | 3.84079 | 36967 ft | 408 kts | 195° |
| 2026-05-06 15:11 | 41.46434 | 3.82794 | 36950 ft | 408 kts | 195° |
| 2026-05-06 15:12 | 41.40844 | 3.81513 | 36963 ft | 407 kts | 195° |
| 2026-05-06 15:12 | 41.35254 | 3.80243 | 36978 ft | 408 kts | 195° |
| 2026-05-06 15:13 | 41.29657 | 3.78966 | 36972 ft | 408 kts | 195° |
| 2026-05-06 15:13 | 41.24059 | 3.77691 | 36960 ft | 408 kts | 195° |
| 2026-05-06 15:14 | 41.18489 | 3.76431 | 36961 ft | 408 kts | 195° |
| 2026-05-06 15:14 | 41.13019 | 3.74538 | 36963 ft | 400 kts | 206° |
| 2026-05-06 15:15 | 41.07865 | 3.71853 | 36966 ft | 401 kts | 206° |
| 2026-05-06 15:15 | 41.02665 | 3.69171 | 36942 ft | 401 kts | 206° |
| 2026-05-06 15:15 | 41.00068 | 3.67839 | 36686 ft | 400 kts | 206° |
| 2026-05-06 15:16 | 40.97472 | 3.66511 | 36433 ft | 399 kts | 206° |
| 2026-05-06 15:16 | 40.94888 | 3.65189 | 36062 ft | 399 kts | 206° |
| 2026-05-06 15:16 | 40.92305 | 3.63866 | 35547 ft | 398 kts | 206° |
| 2026-05-06 15:16 | 40.89726 | 3.62545 | 35072 ft | 397 kts | 206° |
| 2026-05-06 15:17 | 40.87153 | 3.61222 | 34553 ft | 396 kts | 207° |
| 2026-05-06 15:17 | 40.84587 | 3.59904 | 33956 ft | 395 kts | 207° |
| 2026-05-06 15:17 | 40.82029 | 3.58592 | 33306 ft | 395 kts | 207° |
| 2026-05-06 15:17 | 40.79465 | 3.57280 | 32660 ft | 396 kts | 207° |
| 2026-05-06 15:18 | 40.76942 | 3.55992 | 32039 ft | 398 kts | 206° |
| 2026-05-06 15:18 | 40.74321 | 3.54655 | 31427 ft | 400 kts | 206° |
| 2026-05-06 15:18 | 40.71757 | 3.53352 | 30838 ft | 399 kts | 206° |
| 2026-05-06 15:18 | 40.69176 | 3.52044 | 30248 ft | 395 kts | 206° |
| 2026-05-06 15:19 | 40.66629 | 3.50751 | 29584 ft | 391 kts | 206° |
| 2026-05-06 15:19 | 40.64111 | 3.49473 | 29111 ft | 383 kts | 206° |
| 2026-05-06 15:19 | 40.61652 | 3.48229 | 28699 ft | 374 kts | 206° |
| 2026-05-06 15:19 | 40.59250 | 3.47014 | 28314 ft | 365 kts | 206° |
| 2026-05-06 15:20 | 40.56919 | 3.45833 | 27914 ft | 357 kts | 206° |
| 2026-05-06 15:20 | 40.54603 | 3.44655 | 27226 ft | 356 kts | 206° |
| 2026-05-06 15:20 | 40.52293 | 3.43478 | 26550 ft | 355 kts | 206° |
| 2026-05-06 15:20 | 40.49996 | 3.42310 | 25906 ft | 354 kts | 206° |
| 2026-05-06 15:21 | 40.47708 | 3.41148 | 25265 ft | 352 kts | 206° |
| 2026-05-06 15:21 | 40.45392 | 3.40121 | 24783 ft | 350 kts | 200° |
| 2026-05-06 15:21 | 40.43015 | 3.39550 | 24454 ft | 347 kts | 192° |
| 2026-05-06 15:21 | 40.40592 | 3.39445 | 24107 ft | 351 kts | 184° |
| 2026-05-06 15:22 | 40.38156 | 3.39592 | 23782 ft | 350 kts | 184° |
| 2026-05-06 15:22 | 40.35730 | 3.39732 | 23359 ft | 349 kts | 184° |
| 2026-05-06 15:22 | 40.33314 | 3.39870 | 22810 ft | 346 kts | 184° |
| 2026-05-06 15:22 | 40.30914 | 3.40005 | 22271 ft | 344 kts | 184° |
| 2026-05-06 15:23 | 40.28533 | 3.40139 | 21757 ft | 342 kts | 184° |
| 2026-05-06 15:23 | 40.26162 | 3.40273 | 21225 ft | 340 kts | 184° |
| 2026-05-06 15:23 | 40.23807 | 3.40408 | 20716 ft | 338 kts | 184° |
| 2026-05-06 15:23 | 40.21464 | 3.40541 | 20216 ft | 336 kts | 184° |
| 2026-05-06 15:24 | 40.19139 | 3.40671 | 19707 ft | 334 kts | 183° |
| 2026-05-06 15:24 | 40.16853 | 3.40799 | 19231 ft | 333 kts | 183° |
| 2026-05-06 15:24 | 40.14546 | 3.40929 | 18757 ft | 331 kts | 183° |
| 2026-05-06 15:24 | 40.12248 | 3.41058 | 18289 ft | 330 kts | 183° |
| 2026-05-06 15:25 | 40.09958 | 3.41184 | 17753 ft | 328 kts | 183° |
| 2026-05-06 15:25 | 40.07682 | 3.41311 | 17225 ft | 327 kts | 183° |
| 2026-05-06 15:25 | 40.05412 | 3.41437 | 16703 ft | 326 kts | 182° |
| 2026-05-06 15:25 | 40.03148 | 3.41564 | 16189 ft | 324 kts | 182° |
| 2026-05-06 15:26 | 40.00911 | 3.41532 | 15683 ft | 318 kts | 193° |
| 2026-05-06 15:26 | 39.98817 | 3.40749 | 15183 ft | 312 kts | 203° |
| 2026-05-06 15:26 | 39.96773 | 3.39809 | 14689 ft | 311 kts | 203° |
| 2026-05-06 15:26 | 39.94740 | 3.38869 | 14212 ft | 310 kts | 203° |
| 2026-05-06 15:27 | 39.92712 | 3.37932 | 13736 ft | 309 kts | 203° |
| 2026-05-06 15:27 | 39.90689 | 3.36998 | 13205 ft | 308 kts | 202° |
| 2026-05-06 15:27 | 39.88670 | 3.36069 | 12674 ft | 307 kts | 202° |
| 2026-05-06 15:27 | 39.86660 | 3.35145 | 12160 ft | 306 kts | 202° |
| 2026-05-06 15:28 | 39.84663 | 3.34227 | 11644 ft | 300 kts | 202° |
| 2026-05-06 15:28 | 39.82734 | 3.33343 | 11141 ft | 287 kts | 202° |
| 2026-05-06 15:28 | 39.80877 | 3.32490 | 10756 ft | 285 kts | 202° |
| 2026-05-06 15:28 | 39.78994 | 3.31625 | 10395 ft | 282 kts | 202° |
| 2026-05-06 15:29 | 39.77184 | 3.30790 | 10006 ft | 280 kts | 202° |
| 2026-05-06 15:29 | 39.75351 | 3.29943 | 9569 ft | 279 kts | 201° |
| 2026-05-06 15:29 | 39.73515 | 3.29094 | 9105 ft | 280 kts | 201° |
| 2026-05-06 15:29 | 39.71678 | 3.28248 | 8693 ft | 279 kts | 201° |
| 2026-05-06 15:30 | 39.69851 | 3.27411 | 8291 ft | 278 kts | 201° |
| 2026-05-06 15:30 | 39.68032 | 3.26581 | 7895 ft | 276 kts | 200° |
| 2026-05-06 15:30 | 39.66220 | 3.25748 | 7506 ft | 275 kts | 202° |
| 2026-05-06 15:30 | 39.64593 | 3.24511 | 7136 ft | 271 kts | 223° |
| 2026-05-06 15:31 | 39.63469 | 3.22581 | 6713 ft | 269 kts | 241° |
| 2026-05-06 15:31 | 39.62565 | 3.20454 | 6294 ft | 270 kts | 242° |
| 2026-05-06 15:31 | 39.61664 | 3.18324 | 5891 ft | 269 kts | 242° |
| 2026-05-06 15:32 | 39.59873 | 3.14097 | 5110 ft | 266 kts | 242° |
| 2026-05-06 15:32 | 39.58984 | 3.11996 | 4996 ft | 266 kts | 242° |
| 2026-05-06 15:32 | 39.58089 | 3.09889 | 5007 ft | 268 kts | 241° |
| 2026-05-06 15:32 | 39.57188 | 3.07774 | 5008 ft | 268 kts | 242° |
| 2026-05-06 15:33 | 39.56288 | 3.05662 | 5004 ft | 268 kts | 242° |
| 2026-05-06 15:33 | 39.55391 | 3.03561 | 5000 ft | 265 kts | 242° |
| 2026-05-06 15:33 | 39.54495 | 3.01465 | 5002 ft | 266 kts | 242° |
| 2026-05-06 15:33 | 39.53614 | 2.99400 | 5003 ft | 267 kts | 241° |
| 2026-05-06 15:34 | 39.52714 | 2.97289 | 4798 ft | 267 kts | 242° |
| 2026-05-06 15:34 | 39.51821 | 2.95198 | 4524 ft | 260 kts | 242° |
| 2026-05-06 15:34 | 39.50957 | 2.93178 | 4198 ft | 257 kts | 241° |
| 2026-05-06 15:34 | 39.50080 | 2.91133 | 3692 ft | 262 kts | 241° |
| 2026-05-06 15:35 | 39.49200 | 2.89053 | 3195 ft | 265 kts | 242° |
| 2026-05-06 15:35 | 39.48349 | 2.86954 | 2997 ft | 259 kts | 242° |
| 2026-05-06 15:35 | 39.47540 | 2.84946 | 2993 ft | 243 kts | 242° |
| 2026-05-06 15:35 | 39.46786 | 2.83070 | 2995 ft | 228 kts | 242° |
| 2026-05-06 15:36 | 39.46059 | 2.81256 | 3022 ft | 226 kts | 242° |
| 2026-05-06 15:36 | 39.45334 | 2.79448 | 3009 ft | 226 kts | 242° |
| 2026-05-06 15:36 | 39.44611 | 2.77647 | 3008 ft | 226 kts | 242° |
| 2026-05-06 15:36 | 39.43887 | 2.75848 | 3009 ft | 225 kts | 242° |
| 2026-05-06 15:37 | 39.43164 | 2.74049 | 3006 ft | 225 kts | 242° |
| 2026-05-06 15:37 | 39.42443 | 2.72251 | 3005 ft | 225 kts | 242° |
| 2026-05-06 15:37 | 39.41725 | 2.70462 | 3005 ft | 224 kts | 243° |
| 2026-05-06 15:37 | 39.41284 | 2.68541 | 3006 ft | 225 kts | 263° |
| 2026-05-06 15:38 | 39.41161 | 2.66545 | 3013 ft | 225 kts | 266° |
| 2026-05-06 15:38 | 39.41079 | 2.64528 | 3007 ft | 225 kts | 267° |
| 2026-05-06 15:38 | 39.41004 | 2.62512 | 3005 ft | 225 kts | 267° |
| 2026-05-06 15:38 | 39.40929 | 2.60495 | 3005 ft | 225 kts | 267° |
| 2026-05-06 15:39 | 39.40854 | 2.58478 | 3005 ft | 224 kts | 267° |
| 2026-05-06 15:39 | 39.40786 | 2.56463 | 3003 ft | 224 kts | 270° |
| 2026-05-06 15:39 | 39.41183 | 2.54548 | 2999 ft | 223 kts | 303° |
| 2026-05-06 15:39 | 39.42301 | 2.53190 | 3003 ft | 222 kts | 333° |
| 2026-05-06 15:40 | 39.43782 | 2.52788 | 3001 ft | 220 kts | 7° |
| 2026-05-06 15:40 | 39.45141 | 2.53517 | 2998 ft | 205 kts | 42° |
| 2026-05-06 15:40 | 39.46063 | 2.54836 | 3002 ft | 193 kts | 53° |
| 2026-05-06 15:40 | 39.46853 | 2.56225 | 2868 ft | 190 kts | 55° |
| 2026-05-06 15:41 | 39.47618 | 2.57608 | 2629 ft | 188 kts | 55° |
| 2026-05-06 15:41 | 39.48424 | 2.58936 | 2369 ft | 188 kts | 45° |
| 2026-05-06 15:41 | 39.49415 | 2.60033 | 2089 ft | 188 kts | 38° |
| 2026-05-06 15:41 | 39.50398 | 2.61130 | 1811 ft | 185 kts | 53° |
| 2026-05-06 15:42 | 39.50816 | 2.62659 | 1549 ft | 177 kts | 77° |
| 2026-05-06 15:42 | 39.51347 | 2.64029 | 1305 ft | 165 kts | 56° |
| 2026-05-06 15:42 | 39.51939 | 2.65232 | 1087 ft | 152 kts | 59° |
| 2026-05-06 15:42 | 39.52484 | 2.66371 | 892 ft | 145 kts | 59° |
| 2026-05-06 15:43 | 39.53001 | 2.67459 | 705 ft | 141 kts | 59° |
| 2026-05-06 15:43 | 39.53520 | 2.68525 | 523 ft | 138 kts | 58° |
| 2026-05-06 15:43 | 39.54017 | 2.69575 | 316 ft | 137 kts | 57° |
| 2026-05-06 15:43 | 39.54502 | 2.70605 | 151 ft | 135 kts | 58° |
| 2026-05-06 15:44 | 39.54983 | 2.71639 | 36 ft | 131 kts | 59° |
| 2026-05-06 15:44 | 39.55385 | 2.72484 | 30 ft | 79 kts | 58° |
| 2026-05-06 15:44 | 39.55501 | 2.72735 | 30 ft | 17 kts | 75° |
| 2026-05-06 15:44 | 39.55459 | 2.72880 | 30 ft | 14 kts | 125° |
| 2026-05-06 15:45 | 39.55436 | 2.72922 | 30 ft | 0 kts | 125° |
| 2026-05-06 15:45 | 39.55422 | 2.72944 | 30 ft | 12 kts | 135° |
| 2026-05-06 15:45 | 39.55320 | 2.73016 | 30 ft | 17 kts | 149° |
| 2026-05-06 15:46 | 39.55291 | 2.73111 | 30 ft | 12 kts | 76° |
| 2026-05-06 15:46 | 39.55328 | 2.73202 | 30 ft | 12 kts | 58° |
| 2026-05-06 15:46 | 39.55370 | 2.73289 | 30 ft | 12 kts | 58° |
| 2026-05-06 15:46 | 39.55412 | 2.73377 | 30 ft | 8 kts | 58° |
| 2026-05-06 15:47 | 39.55417 | 2.73438 | 30 ft | 7 kts | 126° |
| 2026-05-06 15:47 | 39.55361 | 2.73496 | 30 ft | 12 kts | 148° |
| 2026-05-06 15:47 | 39.55300 | 2.73543 | 30 ft | 10 kts | 149° |
| 2026-05-06 15:47 | 39.55231 | 2.73596 | 30 ft | 15 kts | 148° |
| 2026-05-06 15:48 | 39.55177 | 2.73650 | 30 ft | 7 kts | 116° |
| 2026-05-06 15:48 | 39.55202 | 2.73685 | 30 ft | 5 kts | 7° |
| 2026-05-06 15:48 | 39.55250 | 2.73685 | 30 ft | 6 kts | 355° |
| 2026-05-06 15:48 | 39.55268 | 2.73683 | 30 ft | 1 kts | 355° |
| 2026-05-06 15:49 | 39.55271 | 2.73683 | 30 ft | 0 kts | 355° |